sensor_id;sensor_type;location;lat;lon;timestamp;pressure;altitude;pressure_sealevel;temperature;humidity
76766;BME280;65707;52.362;6.588;2024-01-30T00:00:26;102687.09;;;9.80;76.50
76766;BME280;65707;52.362;6.588;2024-01-30T00:02:53;102694.75;;;9.74;76.68
76766;BME280;65707;52.362;6.588;2024-01-30T00:05:20;102690.81;;;9.67;76.68
76766;BME280;65707;52.362;6.588;2024-01-30T00:07:46;102686.09;;;9.70;76.87
76766;BME280;65707;52.362;6.588;2024-01-30T00:10:13;102691.78;;;9.66;76.93
76766;BME280;65707;52.362;6.588;2024-01-30T00:12:40;102693.97;;;9.61;77.17
76766;BME280;65707;52.362;6.588;2024-01-30T00:15:08;102687.34;;;9.54;77.06
76766;BME280;65707;52.362;6.588;2024-01-30T00:17:35;102693.06;;;9.49;77.13
76766;BME280;65707;52.362;6.588;2024-01-30T00:20:03;102694.44;;;9.55;77.13
76766;BME280;65707;52.362;6.588;2024-01-30T00:22:31;102681.66;;;9.58;77.39
76766;BME280;65707;52.362;6.588;2024-01-30T00:24:58;102684.34;;;9.58;77.67
76766;BME280;65707;52.362;6.588;2024-01-30T00:27:25;102673.72;;;9.46;78.30
76766;BME280;65707;52.362;6.588;2024-01-30T00:29:52;102682.22;;;9.51;77.53
76766;BME280;65707;52.362;6.588;2024-01-30T00:32:20;102678.69;;;9.39;78.29
76766;BME280;65707;52.362;6.588;2024-01-30T00:34:48;102679.06;;;9.46;78.52
76766;BME280;65707;52.362;6.588;2024-01-30T00:37:15;102678.09;;;9.47;77.61
76766;BME280;65707;52.362;6.588;2024-01-30T00:39:41;102678.31;;;9.43;77.46
76766;BME280;65707;52.362;6.588;2024-01-30T00:42:08;102680.03;;;9.44;77.69
76766;BME280;65707;52.362;6.588;2024-01-30T00:44:35;102677.81;;;9.38;77.79
76766;BME280;65707;52.362;6.588;2024-01-30T00:47:02;102681.22;;;9.40;77.70
76766;BME280;65707;52.362;6.588;2024-01-30T00:49:30;102692.19;;;9.37;78.25
76766;BME280;65707;52.362;6.588;2024-01-30T00:51:57;102693.59;;;9.30;78.34
76766;BME280;65707;52.362;6.588;2024-01-30T00:54:24;102680.25;;;9.41;77.90
76766;BME280;65707;52.362;6.588;2024-01-30T00:56:50;102690.84;;;9.43;78.49
76766;BME280;65707;52.362;6.588;2024-01-30T00:59:17;102685.38;;;9.44;78.52
76766;BME280;65707;52.362;6.588;2024-01-30T01:01:44;102687.66;;;9.38;77.40
76766;BME280;65707;52.362;6.588;2024-01-30T01:04:10;102689.75;;;9.34;77.43
76766;BME280;65707;52.362;6.588;2024-01-30T01:06:38;102681.06;;;9.31;78.99
76766;BME280;65707;52.362;6.588;2024-01-30T01:09:07;102687.31;;;9.19;78.75
76766;BME280;65707;52.362;6.588;2024-01-30T01:11:34;102678.50;;;9.29;78.79
76766;BME280;65707;52.362;6.588;2024-01-30T01:14:01;102684.66;;;9.19;78.65
76766;BME280;65707;52.362;6.588;2024-01-30T01:16:28;102687.13;;;9.22;78.93
76766;BME280;65707;52.362;6.588;2024-01-30T01:18:55;102681.66;;;9.23;78.33
76766;BME280;65707;52.362;6.588;2024-01-30T01:21:21;102678.00;;;9.24;78.47
76766;BME280;65707;52.362;6.588;2024-01-30T01:23:49;102673.00;;;9.20;78.57
76766;BME280;65707;52.362;6.588;2024-01-30T01:26:16;102683.53;;;9.10;79.90
76766;BME280;65707;52.362;6.588;2024-01-30T01:28:43;102682.91;;;9.07;79.94
76766;BME280;65707;52.362;6.588;2024-01-30T01:31:09;102685.56;;;9.07;79.54
76766;BME280;65707;52.362;6.588;2024-01-30T01:33:37;102682.44;;;9.13;78.97
76766;BME280;65707;52.362;6.588;2024-01-30T01:36:04;102691.44;;;9.12;79.40
76766;BME280;65707;52.362;6.588;2024-01-30T01:38:31;102683.53;;;9.10;79.15
76766;BME280;65707;52.362;6.588;2024-01-30T01:40:59;102685.97;;;9.13;79.40
76766;BME280;65707;52.362;6.588;2024-01-30T01:43:26;102685.47;;;9.08;79.66
76766;BME280;65707;52.362;6.588;2024-01-30T01:45:53;102683.81;;;8.95;80.81
76766;BME280;65707;52.362;6.588;2024-01-30T01:48:20;102684.94;;;9.03;79.86
76766;BME280;65707;52.362;6.588;2024-01-30T01:50:47;102678.63;;;9.04;79.66
76766;BME280;65707;52.362;6.588;2024-01-30T01:53:15;102677.31;;;9.10;79.13
76766;BME280;65707;52.362;6.588;2024-01-30T01:55:43;102675.38;;;9.12;79.03
76766;BME280;65707;52.362;6.588;2024-01-30T01:58:11;102675.97;;;9.04;79.50
76766;BME280;65707;52.362;6.588;2024-01-30T02:00:39;102669.38;;;9.08;79.36
76766;BME280;65707;52.362;6.588;2024-01-30T02:03:08;102662.97;;;9.11;79.71
76766;BME280;65707;52.362;6.588;2024-01-30T02:05:36;102671.72;;;9.13;79.44
76766;BME280;65707;52.362;6.588;2024-01-30T02:08:05;102660.19;;;9.12;78.99
76766;BME280;65707;52.362;6.588;2024-01-30T02:10:32;102655.31;;;9.17;79.45
76766;BME280;65707;52.362;6.588;2024-01-30T02:12:59;102662.38;;;9.18;79.34
76766;BME280;65707;52.362;6.588;2024-01-30T02:15:28;102649.50;;;9.23;79.07
76766;BME280;65707;52.362;6.588;2024-01-30T02:17:55;102648.66;;;9.23;79.03
76766;BME280;65707;52.362;6.588;2024-01-30T02:20:22;102652.31;;;9.22;78.60
76766;BME280;65707;52.362;6.588;2024-01-30T02:22:54;102654.47;;;9.17;79.02
76766;BME280;65707;52.362;6.588;2024-01-30T02:25:30;102644.88;;;9.25;78.23
76766;BME280;65707;52.362;6.588;2024-01-30T02:27:57;102642.91;;;9.16;78.56
76766;BME280;65707;52.362;6.588;2024-01-30T02:30:24;102638.81;;;9.23;78.12
76766;BME280;65707;52.362;6.588;2024-01-30T02:32:51;102630.75;;;9.23;78.00
76766;BME280;65707;52.362;6.588;2024-01-30T02:35:18;102633.88;;;9.17;78.24
76766;BME280;65707;52.362;6.588;2024-01-30T02:37:44;102632.66;;;9.10;78.77
76766;BME280;65707;52.362;6.588;2024-01-30T02:40:12;102630.84;;;9.11;78.73
76766;BME280;65707;52.362;6.588;2024-01-30T02:42:39;102636.75;;;9.03;78.85
76766;BME280;65707;52.362;6.588;2024-01-30T02:45:08;102632.88;;;9.07;78.10
76766;BME280;65707;52.362;6.588;2024-01-30T02:47:35;102635.38;;;8.98;78.89
76766;BME280;65707;52.362;6.588;2024-01-30T02:50:02;102631.28;;;9.05;78.83
76766;BME280;65707;52.362;6.588;2024-01-30T02:52:29;102622.41;;;9.04;78.62
76766;BME280;65707;52.362;6.588;2024-01-30T02:54:56;102621.59;;;8.91;78.62
76766;BME280;65707;52.362;6.588;2024-01-30T02:57:24;102619.78;;;8.92;79.73
76766;BME280;65707;52.362;6.588;2024-01-30T02:59:50;102624.91;;;8.95;78.82
76766;BME280;65707;52.362;6.588;2024-01-30T03:02:17;102621.47;;;8.93;79.67
76766;BME280;65707;52.362;6.588;2024-01-30T03:04:44;102627.31;;;8.87;79.96
76766;BME280;65707;52.362;6.588;2024-01-30T03:07:12;102623.13;;;8.83;79.34
76766;BME280;65707;52.362;6.588;2024-01-30T03:09:38;102617.47;;;8.87;79.57
76766;BME280;65707;52.362;6.588;2024-01-30T03:12:07;102615.00;;;8.84;79.62
76766;BME280;65707;52.362;6.588;2024-01-30T03:14:36;102611.63;;;8.93;79.45
76766;BME280;65707;52.362;6.588;2024-01-30T03:17:03;102609.66;;;8.84;79.16
76766;BME280;65707;52.362;6.588;2024-01-30T03:19:29;102606.13;;;8.84;79.65
76766;BME280;65707;52.362;6.588;2024-01-30T03:21:56;102612.94;;;8.88;80.18
76766;BME280;65707;52.362;6.588;2024-01-30T03:24:23;102608.78;;;8.84;79.25
76766;BME280;65707;52.362;6.588;2024-01-30T03:26:49;102608.03;;;8.82;79.73
76766;BME280;65707;52.362;6.588;2024-01-30T03:29:16;102609.25;;;8.78;79.64
76766;BME280;65707;52.362;6.588;2024-01-30T03:31:44;102604.25;;;8.73;80.72
76766;BME280;65707;52.362;6.588;2024-01-30T03:34:11;102606.19;;;8.71;79.72
76766;BME280;65707;52.362;6.588;2024-01-30T03:36:37;102602.28;;;8.75;80.90
76766;BME280;65707;52.362;6.588;2024-01-30T03:39:04;102597.84;;;8.87;80.18
76766;BME280;65707;52.362;6.588;2024-01-30T03:41:31;102591.59;;;8.75;80.58
76766;BME280;65707;52.362;6.588;2024-01-30T03:43:58;102591.59;;;8.75;79.64
76766;BME280;65707;52.362;6.588;2024-01-30T03:46:25;102591.81;;;8.72;79.88
76766;BME280;65707;52.362;6.588;2024-01-30T03:48:53;102582.72;;;8.75;79.95
76766;BME280;65707;52.362;6.588;2024-01-30T03:51:20;102586.47;;;8.72;80.54
76766;BME280;65707;52.362;6.588;2024-01-30T03:53:46;102581.34;;;8.69;80.53
76766;BME280;65707;52.362;6.588;2024-01-30T03:56:13;102584.88;;;8.70;80.79
76766;BME280;65707;52.362;6.588;2024-01-30T03:58:40;102590.34;;;8.68;80.44
76766;BME280;65707;52.362;6.588;2024-01-30T04:01:07;102593.53;;;8.73;81.05
76766;BME280;65707;52.362;6.588;2024-01-30T04:03:33;102587.78;;;8.67;79.78
76766;BME280;65707;52.362;6.588;2024-01-30T04:06:01;102588.84;;;8.64;80.54
76766;BME280;65707;52.362;6.588;2024-01-30T04:08:28;102588.63;;;8.67;80.58
76766;BME280;65707;52.362;6.588;2024-01-30T04:10:55;102581.09;;;8.49;80.91
76766;BME280;65707;52.362;6.588;2024-01-30T04:13:22;102583.31;;;8.55;81.33
76766;BME280;65707;52.362;6.588;2024-01-30T04:15:48;102579.47;;;8.59;80.45
76766;BME280;65707;52.362;6.588;2024-01-30T04:18:15;102563.81;;;8.65;80.91
76766;BME280;65707;52.362;6.588;2024-01-30T04:20:41;102570.22;;;8.63;80.44
76766;BME280;65707;52.362;6.588;2024-01-30T04:23:09;102565.41;;;8.68;80.82
76766;BME280;65707;52.362;6.588;2024-01-30T04:25:36;102563.69;;;8.67;80.46
76766;BME280;65707;52.362;6.588;2024-01-30T04:28:03;102564.06;;;8.62;81.67
76766;BME280;65707;52.362;6.588;2024-01-30T04:30:30;102552.19;;;8.77;80.62
76766;BME280;65707;52.362;6.588;2024-01-30T04:32:57;102549.16;;;8.82;80.93
76766;BME280;65707;52.362;6.588;2024-01-30T04:35:23;102543.06;;;8.80;80.51
76766;BME280;65707;52.362;6.588;2024-01-30T04:37:52;102544.91;;;8.79;80.37
76766;BME280;65707;52.362;6.588;2024-01-30T04:40:20;102547.84;;;8.87;79.63
76766;BME280;65707;52.362;6.588;2024-01-30T04:42:46;102545.78;;;8.91;79.63
76766;BME280;65707;52.362;6.588;2024-01-30T04:45:13;102552.41;;;8.98;79.66
76766;BME280;65707;52.362;6.588;2024-01-30T04:47:40;102548.09;;;8.84;79.82
76766;BME280;65707;52.362;6.588;2024-01-30T04:50:07;102556.84;;;8.86;79.79
76766;BME280;65707;52.362;6.588;2024-01-30T04:52:35;102560.66;;;8.95;79.53
76766;BME280;65707;52.362;6.588;2024-01-30T04:55:02;102554.19;;;8.97;79.75
76766;BME280;65707;52.362;6.588;2024-01-30T04:57:30;102550.06;;;8.93;80.05
76766;BME280;65707;52.362;6.588;2024-01-30T04:59:58;102548.97;;;8.96;80.13
76766;BME280;65707;52.362;6.588;2024-01-30T05:02:25;102543.50;;;8.97;79.63
76766;BME280;65707;52.362;6.588;2024-01-30T05:04:53;102565.53;;;9.01;79.96
76766;BME280;65707;52.362;6.588;2024-01-30T05:07:20;102561.06;;;9.01;79.50
76766;BME280;65707;52.362;6.588;2024-01-30T05:09:46;102550.78;;;8.95;80.13
76766;BME280;65707;52.362;6.588;2024-01-30T05:12:13;102545.22;;;8.98;79.47
76766;BME280;65707;52.362;6.588;2024-01-30T05:14:41;102556.75;;;8.99;79.16
76766;BME280;65707;52.362;6.588;2024-01-30T05:17:08;102553.72;;;9.03;79.68
76766;BME280;65707;52.362;6.588;2024-01-30T05:19:37;102544.28;;;9.10;79.73
76766;BME280;65707;52.362;6.588;2024-01-30T05:22:04;102550.22;;;9.03;79.43
76766;BME280;65707;52.362;6.588;2024-01-30T05:24:31;102550.97;;;9.16;78.82
76766;BME280;65707;52.362;6.588;2024-01-30T05:26:58;102547.22;;;9.18;79.60
76766;BME280;65707;52.362;6.588;2024-01-30T05:29:24;102546.47;;;9.16;79.36
76766;BME280;65707;52.362;6.588;2024-01-30T05:31:52;102547.97;;;9.20;79.31
76766;BME280;65707;52.362;6.588;2024-01-30T05:34:19;102543.34;;;9.33;78.84
76766;BME280;65707;52.362;6.588;2024-01-30T05:36:46;102534.94;;;9.38;78.31
76766;BME280;65707;52.362;6.588;2024-01-30T05:39:12;102520.72;;;9.37;78.05
76766;BME280;65707;52.362;6.588;2024-01-30T05:41:39;102524.50;;;9.46;77.39
76766;BME280;65707;52.362;6.588;2024-01-30T05:44:06;102524.38;;;9.48;78.25
76766;BME280;65707;52.362;6.588;2024-01-30T05:46:33;102520.50;;;9.52;78.41
76766;BME280;65707;52.362;6.588;2024-01-30T05:49:03;102521.94;;;9.44;78.12
76766;BME280;65707;52.362;6.588;2024-01-30T05:51:29;102527.06;;;9.48;78.26
76766;BME280;65707;52.362;6.588;2024-01-30T05:53:56;102522.06;;;9.54;77.55
76766;BME280;65707;52.362;6.588;2024-01-30T05:56:22;102522.06;;;9.54;78.22
76766;BME280;65707;52.362;6.588;2024-01-30T05:58:49;102517.44;;;9.56;77.62
76766;BME280;65707;52.362;6.588;2024-01-30T06:01:16;102518.66;;;9.63;77.53
76766;BME280;65707;52.362;6.588;2024-01-30T06:03:43;102527.31;;;9.67;77.41
76766;BME280;65707;52.362;6.588;2024-01-30T06:06:11;102527.31;;;9.67;77.33
76766;BME280;65707;52.362;6.588;2024-01-30T06:08:37;102522.19;;;9.64;78.37
76766;BME280;65707;52.362;6.588;2024-01-30T06:11:04;102530.50;;;9.72;77.94
76766;BME280;65707;52.362;6.588;2024-01-30T06:13:31;102526.13;;;9.71;77.92
76766;BME280;65707;52.362;6.588;2024-01-30T06:15:58;102529.03;;;9.68;77.53
76766;BME280;65707;52.362;6.588;2024-01-30T06:18:25;102520.63;;;9.72;78.38
76766;BME280;65707;52.362;6.588;2024-01-30T06:20:52;102530.25;;;9.75;77.63
76766;BME280;65707;52.362;6.588;2024-01-30T06:23:20;102530.97;;;9.77;78.16
76766;BME280;65707;52.362;6.588;2024-01-30T06:25:47;102528.16;;;9.89;77.69
76766;BME280;65707;52.362;6.588;2024-01-30T06:28:13;102531.69;;;9.90;77.33
76766;BME280;65707;52.362;6.588;2024-01-30T06:30:40;102529.00;;;9.90;77.24
76766;BME280;65707;52.362;6.588;2024-01-30T06:33:07;102525.84;;;9.96;77.07
76766;BME280;65707;52.362;6.588;2024-01-30T06:35:33;102520.84;;;9.91;77.64
76766;BME280;65707;52.362;6.588;2024-01-30T06:38:01;102529.00;;;9.90;77.25
76766;BME280;65707;52.362;6.588;2024-01-30T06:40:29;102512.69;;;9.93;76.99
76766;BME280;65707;52.362;6.588;2024-01-30T06:42:56;102518.78;;;9.95;77.14
76766;BME280;65707;52.362;6.588;2024-01-30T06:45:22;102520.72;;;10.04;77.07
76766;BME280;65707;52.362;6.588;2024-01-30T06:47:49;102526.09;;;10.04;76.39
76766;BME280;65707;52.362;6.588;2024-01-30T06:50:15;102533.56;;;10.11;76.58
76766;BME280;65707;52.362;6.588;2024-01-30T06:52:42;102535.97;;;10.03;76.84
76766;BME280;65707;52.362;6.588;2024-01-30T06:55:09;102528.03;;;10.02;76.82
76766;BME280;65707;52.362;6.588;2024-01-30T06:57:37;102523.91;;;10.09;77.09
76766;BME280;65707;52.362;6.588;2024-01-30T07:00:05;102522.22;;;10.08;77.05
76766;BME280;65707;52.362;6.588;2024-01-30T07:02:32;102525.84;;;10.07;77.35
76766;BME280;65707;52.362;6.588;2024-01-30T07:04:59;102526.09;;;10.04;76.84
76766;BME280;65707;52.362;6.588;2024-01-30T07:07:25;102530.00;;;10.11;76.92
76766;BME280;65707;52.362;6.588;2024-01-30T07:09:52;102537.06;;;10.12;77.14
76766;BME280;65707;52.362;6.588;2024-01-30T07:12:21;102523.06;;;10.08;76.62
76766;BME280;65707;52.362;6.588;2024-01-30T07:14:51;102534.84;;;10.06;77.46
76766;BME280;65707;52.362;6.588;2024-01-30T07:17:17;102525.84;;;10.07;77.24
76766;BME280;65707;52.362;6.588;2024-01-30T07:19:44;102527.06;;;10.14;76.71
76766;BME280;65707;52.362;6.588;2024-01-30T07:22:11;102539.75;;;10.12;76.75
76766;BME280;65707;52.362;6.588;2024-01-30T07:24:42;102530.47;;;10.05;77.08
76766;BME280;65707;52.362;6.588;2024-01-30T07:27:12;102530.34;;;10.06;77.43
76766;BME280;65707;52.362;6.588;2024-01-30T07:29:39;102526.09;;;10.04;77.42
76766;BME280;65707;52.362;6.588;2024-01-30T07:32:07;102520.25;;;10.10;76.68
76766;BME280;65707;52.362;6.588;2024-01-30T07:34:33;102524.75;;;10.09;77.17
76766;BME280;65707;52.362;6.588;2024-01-30T07:37:01;102530.38;;;10.17;77.32
76766;BME280;65707;52.362;6.588;2024-01-30T07:39:28;102533.41;;;10.24;76.70
76766;BME280;65707;52.362;6.588;2024-01-30T07:41:55;102527.31;;;10.11;77.51
76766;BME280;65707;52.362;6.588;2024-01-30T07:44:22;102523.66;;;10.12;77.63
76766;BME280;65707;52.362;6.588;2024-01-30T07:46:49;102537.81;;;10.14;77.41
76766;BME280;65707;52.362;6.588;2024-01-30T07:49:17;102527.44;;;10.20;77.20
76766;BME280;65707;52.362;6.588;2024-01-30T07:51:43;102539.13;;;10.30;76.72
76766;BME280;65707;52.362;6.588;2024-01-30T07:54:16;102550.94;;;10.28;77.02
76766;BME280;65707;52.362;6.588;2024-01-30T07:56:43;102551.19;;;10.25;77.12
76766;BME280;65707;52.362;6.588;2024-01-30T07:59:10;102551.56;;;10.31;77.13
76766;BME280;65707;52.362;6.588;2024-01-30T08:01:37;102549.75;;;10.32;77.02
76766;BME280;65707;52.362;6.588;2024-01-30T08:04:04;102563.97;;;10.32;77.00
76766;BME280;65707;52.362;6.588;2024-01-30T08:06:32;102548.13;;;10.40;76.74
76766;BME280;65707;52.362;6.588;2024-01-30T08:08:59;102557.03;;;10.41;76.50
76766;BME280;65707;52.362;6.588;2024-01-30T08:11:25;102561.28;;;10.43;77.15
76766;BME280;65707;52.362;6.588;2024-01-30T08:13:54;102560.44;;;10.43;77.33
76766;BME280;65707;52.362;6.588;2024-01-30T08:16:21;102566.38;;;10.46;76.84
76766;BME280;65707;52.362;6.588;2024-01-30T08:18:48;102571.75;;;10.46;76.73
76766;BME280;65707;52.362;6.588;2024-01-30T08:21:15;102571.06;;;10.44;77.27
76766;BME280;65707;52.362;6.588;2024-01-30T08:23:43;102581.03;;;10.53;77.03
76766;BME280;65707;52.362;6.588;2024-01-30T08:26:10;102571.84;;;10.56;77.14
76766;BME280;65707;52.362;6.588;2024-01-30T08:28:37;102570.13;;;10.66;76.32
76766;BME280;65707;52.362;6.588;2024-01-30T08:31:04;102545.72;;;10.69;76.68
76766;BME280;65707;52.362;6.588;2024-01-30T08:33:30;102548.66;;;10.66;76.22
76766;BME280;65707;52.362;6.588;2024-01-30T08:35:57;102554.00;;;10.77;75.90
76766;BME280;65707;52.362;6.588;2024-01-30T08:38:24;102570.84;;;10.79;76.06
76766;BME280;65707;52.362;6.588;2024-01-30T08:40:52;102569.97;;;10.78;75.94
76766;BME280;65707;52.362;6.588;2024-01-30T08:43:19;102574.34;;;10.79;76.28
76766;BME280;65707;52.362;6.588;2024-01-30T08:45:46;102575.72;;;10.74;76.39
76766;BME280;65707;52.362;6.588;2024-01-30T08:48:13;102564.97;;;10.74;76.47
76766;BME280;65707;52.362;6.588;2024-01-30T08:50:40;102564.59;;;10.78;76.27
76766;BME280;65707;52.362;6.588;2024-01-30T08:53:06;102565.19;;;10.82;75.89
76766;BME280;65707;52.362;6.588;2024-01-30T08:55:33;102566.16;;;10.81;76.08
76766;BME280;65707;52.362;6.588;2024-01-30T08:58:01;102558.84;;;10.83;76.24
76766;BME280;65707;52.362;6.588;2024-01-30T09:00:30;102572.47;;;10.91;75.97
76766;BME280;65707;52.362;6.588;2024-01-30T09:02:56;102568.09;;;10.90;76.24
76766;BME280;65707;52.362;6.588;2024-01-30T09:05:23;102559.34;;;11.09;75.57
76766;BME280;65707;52.362;6.588;2024-01-30T09:07:50;102556.19;;;11.04;75.73
76766;BME280;65707;52.362;6.588;2024-01-30T09:10:17;102556.47;;;11.21;75.18
76766;BME280;65707;52.362;6.588;2024-01-30T09:12:43;102566.22;;;11.22;75.02
76766;BME280;65707;52.362;6.588;2024-01-30T09:15:11;102576.09;;;11.22;75.11
76766;BME280;65707;52.362;6.588;2024-01-30T09:17:38;102573.41;;;11.22;75.26
76766;BME280;65707;52.362;6.588;2024-01-30T09:20:06;102572.78;;;11.29;75.05
76766;BME280;65707;52.362;6.588;2024-01-30T09:22:34;102574.69;;;11.38;74.84
76766;BME280;65707;52.362;6.588;2024-01-30T09:25:01;102578.72;;;11.53;74.01
76766;BME280;65707;52.362;6.588;2024-01-30T09:27:27;102581.88;;;11.58;73.93
76766;BME280;65707;52.362;6.588;2024-01-30T09:29:54;102577.47;;;11.68;73.97
76766;BME280;65707;52.362;6.588;2024-01-30T09:32:22;102582.69;;;11.70;73.52
76766;BME280;65707;52.362;6.588;2024-01-30T09:34:49;102575.91;;;11.75;73.33
76766;BME280;65707;52.362;6.588;2024-01-30T09:37:15;102580.75;;;11.72;73.78
76766;BME280;65707;52.362;6.588;2024-01-30T09:39:43;102588.09;;;11.70;73.76
76766;BME280;65707;52.362;6.588;2024-01-30T09:42:17;102584.72;;;11.77;73.41
76766;BME280;65707;52.362;6.588;2024-01-30T09:44:53;102585.38;;;11.70;73.97
76766;BME280;65707;52.362;6.588;2024-01-30T09:47:21;102588.72;;;11.83;73.79
76766;BME280;65707;52.362;6.588;2024-01-30T09:49:49;102595.41;;;11.88;73.21
76766;BME280;65707;52.362;6.588;2024-01-30T09:52:17;102592.38;;;11.82;73.77
76766;BME280;65707;52.362;6.588;2024-01-30T09:54:45;102585.91;;;11.94;73.62
76766;BME280;65707;52.362;6.588;2024-01-30T09:57:11;102589.34;;;11.96;73.71
76766;BME280;65707;52.362;6.588;2024-01-30T09:59:38;102587.59;;;12.15;73.38
76766;BME280;65707;52.362;6.588;2024-01-30T10:02:05;102582.38;;;12.23;73.31
76766;BME280;65707;52.362;6.588;2024-01-30T10:04:35;102576.44;;;12.29;72.82
76766;BME280;65707;52.362;6.588;2024-01-30T10:07:01;102580.88;;;12.49;72.26
76766;BME280;65707;52.362;6.588;2024-01-30T10:09:31;102576.47;;;12.39;72.37
76766;BME280;65707;52.362;6.588;2024-01-30T10:11:59;102571.66;;;12.42;72.21
76766;BME280;65707;52.362;6.588;2024-01-30T10:14:28;102574.63;;;12.39;72.64
76766;BME280;65707;52.362;6.588;2024-01-30T10:16:55;102578.88;;;12.42;72.80
76766;BME280;65707;52.362;6.588;2024-01-30T10:19:23;102578.59;;;12.35;72.75
76766;BME280;65707;52.362;6.588;2024-01-30T10:21:51;102580.44;;;12.44;72.84
76766;BME280;65707;52.362;6.588;2024-01-30T10:24:18;102570.56;;;12.55;73.15
76766;BME280;65707;52.362;6.588;2024-01-30T10:26:49;102577.34;;;12.59;73.14
76766;BME280;65707;52.362;6.588;2024-01-30T10:29:16;102573.13;;;12.66;72.60
76766;BME280;65707;52.362;6.588;2024-01-30T10:31:43;102573.84;;;12.68;72.68
76766;BME280;65707;52.362;6.588;2024-01-30T10:34:10;102574.25;;;12.73;72.54
76766;BME280;65707;52.362;6.588;2024-01-30T10:36:40;102572.28;;;12.94;71.95
76766;BME280;65707;52.362;6.588;2024-01-30T10:39:08;102575.03;;;13.03;72.16
76766;BME280;65707;52.362;6.588;2024-01-30T10:41:43;102574.31;;;13.20;71.44
76766;BME280;65707;52.362;6.588;2024-01-30T10:44:11;102572.31;;;13.13;71.89
76766;BME280;65707;52.362;6.588;2024-01-30T10:46:47;102578.53;;;13.23;71.48
76766;BME280;65707;52.362;6.588;2024-01-30T10:49:20;102573.03;;;13.15;72.10
76766;BME280;65707;52.362;6.588;2024-01-30T10:51:49;102572.59;;;13.29;71.92
76766;BME280;65707;52.362;6.588;2024-01-30T10:54:19;102569.31;;;13.35;71.73
76766;BME280;65707;52.362;6.588;2024-01-30T10:56:48;102569.91;;;13.29;71.58
76766;BME280;65707;52.362;6.588;2024-01-30T10:59:16;102572.31;;;13.32;71.72
76766;BME280;65707;52.362;6.588;2024-01-30T11:01:43;102576.41;;;13.45;71.18
76766;BME280;65707;52.362;6.588;2024-01-30T11:04:11;102571.13;;;13.53;71.44
76766;BME280;65707;52.362;6.588;2024-01-30T11:06:41;102578.22;;;13.45;71.17
76766;BME280;65707;52.362;6.588;2024-01-30T11:09:11;102584.19;;;13.48;71.10
76766;BME280;65707;52.362;6.588;2024-01-30T11:11:56;102575.66;;;13.53;71.20
76766;BME280;65707;52.362;6.588;2024-01-30T11:14:25;102573.97;;;13.52;71.25
76766;BME280;65707;52.362;6.588;2024-01-30T11:16:52;102581.34;;;13.50;71.76
76766;BME280;65707;52.362;6.588;2024-01-30T11:19:23;102579.78;;;13.57;71.04
76766;BME280;65707;52.362;6.588;2024-01-30T11:21:51;102584.75;;;13.61;71.53
76766;BME280;65707;52.362;6.588;2024-01-30T11:24:19;102595.38;;;13.63;71.47
76766;BME280;65707;52.362;6.588;2024-01-30T11:26:48;102581.34;;;13.59;70.72
76766;BME280;65707;52.362;6.588;2024-01-30T11:29:20;102578.66;;;13.50;71.03
76766;BME280;65707;52.362;6.588;2024-01-30T11:31:54;102582.22;;;13.41;71.25
76766;BME280;65707;52.362;6.588;2024-01-30T11:34:21;102578.50;;;13.51;71.54
76766;BME280;65707;52.362;6.588;2024-01-30T11:36:52;102588.19;;;13.44;71.08
76766;BME280;65707;52.362;6.588;2024-01-30T11:39:25;102583.09;;;13.41;71.18
76766;BME280;65707;52.362;6.588;2024-01-30T11:41:52;102585.06;;;13.39;71.43
76766;BME280;65707;52.362;6.588;2024-01-30T11:44:21;102580.41;;;13.32;71.33
76766;BME280;65707;52.362;6.588;2024-01-30T11:46:49;102576.00;;;13.31;72.10
76766;BME280;65707;52.362;6.588;2024-01-30T11:49:16;102587.47;;;13.52;71.06
76766;BME280;65707;52.362;6.588;2024-01-30T11:51:45;102583.75;;;13.53;71.07
76766;BME280;65707;52.362;6.588;2024-01-30T11:54:14;102567.53;;;13.72;70.41
76766;BME280;65707;52.362;6.588;2024-01-30T11:56:41;102579.63;;;13.68;69.92
76766;BME280;65707;52.362;6.588;2024-01-30T11:59:09;102575.19;;;13.67;70.18
76766;BME280;65707;52.362;6.588;2024-01-30T12:01:37;102570.63;;;13.77;69.37
76766;BME280;65707;52.362;6.588;2024-01-30T12:04:04;102560.25;;;13.82;69.47
76766;BME280;65707;52.362;6.588;2024-01-30T12:06:34;102556.09;;;13.87;68.78
76766;BME280;65707;52.362;6.588;2024-01-30T12:09:02;102565.22;;;13.86;68.97
76766;BME280;65707;52.362;6.588;2024-01-30T12:11:30;102562.75;;;14.02;67.88
76766;BME280;65707;52.362;6.588;2024-01-30T12:13:57;102553.66;;;13.94;68.17
76766;BME280;65707;52.362;6.588;2024-01-30T12:16:24;102544.38;;;14.06;67.34
76766;BME280;65707;52.362;6.588;2024-01-30T12:19:00;102556.19;;;14.05;67.94
76766;BME280;65707;52.362;6.588;2024-01-30T12:21:27;102548.78;;;14.07;67.83
76766;BME280;65707;52.362;6.588;2024-01-30T12:23:55;102560.50;;;13.98;68.26
76766;BME280;65707;52.362;6.588;2024-01-30T12:26:23;102554.66;;;14.02;67.95
76766;BME280;65707;52.362;6.588;2024-01-30T12:28:50;102552.13;;;14.19;67.56
76766;BME280;65707;52.362;6.588;2024-01-30T12:31:25;102556.13;;;14.15;67.41
76766;BME280;65707;52.362;6.588;2024-01-30T12:33:52;102562.19;;;13.99;68.14
76766;BME280;65707;52.362;6.588;2024-01-30T12:36:20;102565.31;;;13.94;68.55
76766;BME280;65707;52.362;6.588;2024-01-30T12:38:47;102564.81;;;13.81;69.00
76766;BME280;65707;52.362;6.588;2024-01-30T12:41:14;102573.16;;;13.88;68.26
76766;BME280;65707;52.362;6.588;2024-01-30T12:43:41;102578.25;;;13.91;68.54
76766;BME280;65707;52.362;6.588;2024-01-30T12:46:08;102578.06;;;14.02;67.71
76766;BME280;65707;52.362;6.588;2024-01-30T12:48:35;102575.78;;;14.07;67.92
76766;BME280;65707;52.362;6.588;2024-01-30T12:51:02;102577.56;;;14.26;65.00
76766;BME280;65707;52.362;6.588;2024-01-30T12:53:31;102569.22;;;14.10;65.38
76766;BME280;65707;52.362;6.588;2024-01-30T12:55:57;102562.94;;;14.19;61.56